createdAt,value
2023-04-24T00:00:07.331Z,100158.37
2023-04-24T00:02:34.302Z,100157.05
2023-04-24T00:05:04.082Z,100156.30
2023-04-24T00:07:31.218Z,100157.91
2023-04-24T00:09:58.063Z,100156.46
2023-04-24T00:12:25.367Z,100161.21
2023-04-24T00:14:52.274Z,100160.32
2023-04-24T00:17:21.168Z,100156.83
2023-04-24T00:19:48.623Z,100154.10
2023-04-24T00:22:15.619Z,100157.45
2023-04-24T00:24:42.510Z,100153.20
2023-04-24T00:27:09.259Z,100153.41
2023-04-24T00:29:36.200Z,100154.02
2023-04-24T00:32:03.095Z,100153.83
2023-04-24T00:34:30.014Z,100157.00
2023-04-24T00:36:57.059Z,100157.64
2023-04-24T00:39:24.178Z,100156.06
2023-04-24T00:41:51.964Z,100158.77
2023-04-24T00:44:18.779Z,100156.49
2023-04-24T00:46:45.720Z,100156.65
2023-04-24T00:49:13.190Z,100153.90
2023-04-24T00:51:41.921Z,100150.65
2023-04-24T00:54:08.931Z,100150.52
2023-04-24T00:56:35.976Z,100148.02
2023-04-24T00:59:02.691Z,100145.13
2023-04-24T01:01:29.615Z,100147.48
2023-04-24T01:03:57.358Z,100146.17
2023-04-24T01:06:24.498Z,100145.55
2023-04-24T01:08:51.413Z,100145.70
2023-04-24T01:11:18.124Z,100144.89
2023-04-24T01:13:46.204Z,100145.19
2023-04-24T01:16:13.121Z,100142.87
2023-04-24T01:18:40.128Z,100144.05
2023-04-24T01:21:07.058Z,100143.02
2023-04-24T01:23:33.901Z,100142.00
2023-04-24T01:26:01.180Z,100143.10
2023-04-24T01:28:27.981Z,100140.74
2023-04-24T01:30:54.831Z,100141.85
2023-04-24T01:33:23.645Z,100138.98
2023-04-24T01:35:50.581Z,100138.30
2023-04-24T01:38:17.515Z,100132.21
2023-04-24T01:40:44.361Z,100137.61
2023-04-24T01:43:11.108Z,100135.20
2023-04-24T01:45:38.057Z,100136.83
2023-04-24T01:48:05.029Z,100131.95
2023-04-24T01:50:31.972Z,100137.84
2023-04-24T01:52:58.883Z,100132.86
2023-04-24T01:55:25.658Z,100131.25
2023-04-24T01:57:53.486Z,100128.06
2023-04-24T02:00:20.442Z,100122.44
2023-04-24T02:02:48.453Z,100121.98
2023-04-24T02:05:16.065Z,100119.39
2023-04-24T02:07:42.944Z,100121.05
2023-04-24T02:10:10.358Z,100124.61
2023-04-24T02:12:37.247Z,100126.02
2023-04-24T02:15:04.448Z,100127.80
2023-04-24T02:17:31.987Z,100129.52
2023-04-24T02:19:59.057Z,100125.44
2023-04-24T02:22:25.900Z,100121.67
2023-04-24T02:24:52.649Z,100123.27
2023-04-24T02:27:19.588Z,100122.77
2023-04-24T02:29:47.349Z,100124.62
2023-04-24T02:32:16.834Z,100121.63
2023-04-24T02:34:43.926Z,100118.70
2023-04-24T02:37:11.051Z,100117.89
2023-04-24T02:39:37.896Z,100116.59
2023-04-24T02:42:04.834Z,100114.11
2023-04-24T02:44:31.680Z,100117.16
2023-04-24T02:46:58.454Z,100119.00
2023-04-24T02:49:25.360Z,100126.33
2023-04-24T02:51:52.137Z,100126.48
2023-04-24T02:54:18.954Z,100123.94
2023-04-24T02:56:45.892Z,100121.02
2023-04-24T02:59:12.801Z,100120.95
2023-04-24T03:01:39.842Z,100122.48
2023-04-24T03:04:07.004Z,100129.19
2023-04-24T03:06:36.593Z,100125.79
2023-04-24T03:09:04.751Z,100126.02
2023-04-24T03:11:32.781Z,100122.85
2023-04-24T03:13:59.622Z,100121.69
2023-04-24T03:16:27.081Z,100129.94
2023-04-24T03:18:55.915Z,100137.02
2023-04-24T03:21:23.845Z,100137.34
2023-04-24T03:23:50.885Z,100132.78
2023-04-24T03:26:18.139Z,100128.52
2023-04-24T03:28:54.708Z,100135.23
2023-04-24T03:31:22.375Z,100136.55
2023-04-24T03:33:49.520Z,100141.69
2023-04-24T03:36:16.638Z,100145.01
2023-04-24T03:38:44.304Z,100146.87
2023-04-24T03:41:33.090Z,100150.38
2023-04-24T03:44:19.385Z,100147.56
2023-04-24T03:46:46.480Z,100151.13
2023-04-24T03:49:13.675Z,100152.25
2023-04-24T03:51:43.094Z,100150.83
2023-04-24T03:54:16.177Z,100149.18
2023-04-24T03:56:43.095Z,100149.01
2023-04-24T03:59:10.476Z,100149.65
2023-04-24T04:01:39.077Z,100152.57
2023-04-24T04:04:14.209Z,100157.05
2023-04-24T04:06:41.554Z,100151.04
2023-04-24T04:09:09.823Z,100151.77
2023-04-24T04:11:37.101Z,100155.05
2023-04-24T04:14:03.887Z,100155.92
2023-04-24T04:16:31.107Z,100157.58
2023-04-24T04:19:07.294Z,100158.12
2023-04-24T04:21:37.770Z,100157.03
2023-04-24T04:24:17.203Z,100158.94
2023-04-24T04:26:49.070Z,100158.04
2023-04-24T04:29:29.634Z,100154.81
2023-04-24T04:31:56.721Z,100158.59
2023-04-24T04:34:24.358Z,100156.52
2023-04-24T04:36:51.785Z,100160.09
2023-04-24T04:39:31.743Z,100155.86
2023-04-24T04:42:07.994Z,100158.08
2023-04-24T04:44:41.017Z,100158.30
2023-04-24T04:47:10.021Z,100156.45
2023-04-24T04:49:39.613Z,100155.78
2023-04-24T04:52:09.805Z,100156.07
2023-04-24T04:54:37.059Z,100156.94
2023-04-24T04:57:04.433Z,100151.20
2023-04-24T04:59:31.692Z,100152.70
2023-04-24T05:02:03.255Z,100154.42
2023-04-24T05:04:31.982Z,100153.09
2023-04-24T05:06:59.395Z,100152.56
2023-04-24T05:09:28.402Z,100151.92
2023-04-24T05:11:58.472Z,100147.19
2023-04-24T05:14:26.242Z,100144.70
2023-04-24T05:16:53.762Z,100141.64
2023-04-24T05:19:21.650Z,100142.09
2023-04-24T05:21:48.532Z,100139.04
2023-04-24T05:24:15.456Z,100140.92
2023-04-24T05:27:17.418Z,100135.87
2023-04-24T05:29:45.152Z,100137.98
2023-04-24T05:32:12.758Z,100138.69
2023-04-24T05:34:39.797Z,100134.52
2023-04-24T05:37:09.305Z,100135.01
2023-04-24T05:39:37.060Z,100133.73
2023-04-24T05:42:05.640Z,100132.77
2023-04-24T05:44:32.486Z,100133.65
2023-04-24T05:46:59.945Z,100130.67
2023-04-24T05:49:26.989Z,100128.30
2023-04-24T05:51:54.497Z,100129.91
2023-04-24T05:54:21.391Z,100136.42
2023-04-24T05:56:48.272Z,100140.16
2023-04-24T05:59:20.053Z,100137.91
2023-04-24T06:01:47.404Z,100138.65
2023-04-24T06:04:17.542Z,100140.36
2023-04-24T06:06:44.443Z,100139.52
2023-04-24T06:09:11.460Z,100135.04
2023-04-24T06:11:38.416Z,100135.08
2023-04-24T06:14:05.689Z,100136.05
2023-04-24T06:16:40.019Z,100142.11
2023-04-24T06:19:15.513Z,100142.41
2023-04-24T06:21:42.383Z,100146.73
2023-04-24T06:24:09.303Z,100147.03
2023-04-24T06:26:36.357Z,100142.73
2023-04-24T06:29:03.295Z,100146.82
2023-04-24T06:31:30.095Z,100145.56
2023-04-24T06:33:57.083Z,100146.87
2023-04-24T06:36:24.651Z,100147.59
2023-04-24T06:38:51.453Z,100149.28
2023-04-24T06:41:18.346Z,100151.96
2023-04-24T06:43:46.015Z,100154.92
2023-04-24T06:46:13.183Z,100156.61
2023-04-24T06:48:40.623Z,100160.25
2023-04-24T06:51:07.432Z,100153.05
2023-04-24T06:53:34.455Z,100153.45
2023-04-24T06:56:01.547Z,100156.59
2023-04-24T06:58:28.792Z,100158.23
2023-04-24T07:00:55.645Z,100157.21
2023-04-24T07:03:22.861Z,100158.02
2023-04-24T07:05:50.541Z,100161.02
2023-04-24T07:08:18.818Z,100158.71
2023-04-24T07:10:46.200Z,100156.67
2023-04-24T07:13:13.129Z,100160.09
2023-04-24T07:15:41.036Z,100157.60
2023-04-24T07:18:08.112Z,100157.08
2023-04-24T07:20:35.404Z,100155.92
2023-04-24T07:23:02.946Z,100159.02
2023-04-24T07:25:29.893Z,100156.44
2023-04-24T07:27:56.621Z,100155.94
2023-04-24T07:30:23.442Z,100156.20
2023-04-24T07:32:50.405Z,100158.00
2023-04-24T07:35:17.336Z,100160.66
2023-04-24T07:37:47.046Z,100153.48
2023-04-24T07:40:14.639Z,100147.10
2023-04-24T07:42:41.619Z,100149.49
2023-04-24T07:45:08.473Z,100145.77
2023-04-24T07:47:35.444Z,100148.76
2023-04-24T07:50:02.363Z,100152.83
2023-04-24T07:52:29.099Z,100152.72
2023-04-24T07:54:59.533Z,100145.77
2023-04-24T07:57:26.515Z,100144.69
2023-04-24T07:59:53.394Z,100142.39
2023-04-24T08:02:20.260Z,100143.20
2023-04-24T08:04:47.279Z,100140.21
2023-04-24T08:07:14.365Z,100142.27
2023-04-24T08:09:41.270Z,100141.93
2023-04-24T08:12:08.084Z,100137.95
2023-04-24T08:14:34.775Z,100140.54
2023-04-24T08:17:02.375Z,100133.13
2023-04-24T08:19:29.225Z,100133.48
2023-04-24T08:21:56.177Z,100133.76
2023-04-24T08:24:23.320Z,100136.05
2023-04-24T08:26:55.107Z,100142.95
2023-04-24T08:29:22.034Z,100140.91
2023-04-24T08:31:48.880Z,100136.83
2023-04-24T08:34:15.705Z,100139.77
2023-04-24T08:36:46.948Z,100129.59
2023-04-24T08:39:15.483Z,100128.08
2023-04-24T08:41:44.363Z,100125.31
2023-04-24T08:44:11.380Z,100122.27
2023-04-24T08:46:38.341Z,100125.02
2023-04-24T08:49:05.900Z,100119.70
2023-04-24T08:51:32.729Z,100118.02
2023-04-24T08:53:59.568Z,100117.91
2023-04-24T08:56:26.282Z,100117.73
2023-04-24T08:58:53.252Z,100112.30
2023-04-24T09:01:23.412Z,100110.45
2023-04-24T09:03:51.084Z,100102.48
2023-04-24T09:06:18.843Z,100103.89
2023-04-24T09:08:46.398Z,100106.27
2023-04-24T09:11:13.303Z,100104.38
2023-04-24T09:13:40.138Z,100105.68
2023-04-24T09:16:07.337Z,100105.20
2023-04-24T09:18:36.361Z,100099.83
2023-04-24T09:21:04.992Z,100102.98
2023-04-24T09:23:32.049Z,100100.76
2023-04-24T09:25:59.784Z,100099.67
2023-04-24T09:28:33.789Z,100101.58
2023-04-24T09:31:11.035Z,100102.21
2023-04-24T09:33:38.134Z,100095.17
2023-04-24T09:36:05.485Z,100093.64
2023-04-24T09:38:36.370Z,100092.17
2023-04-24T09:41:04.578Z,100091.58
2023-04-24T09:43:31.574Z,100092.20
2023-04-24T09:45:59.780Z,100095.73
2023-04-24T09:48:33.463Z,100094.95
2023-04-24T09:51:01.939Z,100093.66
2023-04-24T09:53:28.944Z,100097.11
2023-04-24T09:55:55.989Z,100096.18
2023-04-24T09:58:27.496Z,100099.81
2023-04-24T10:00:54.794Z,100101.16
2023-04-24T10:03:21.800Z,100100.60
2023-04-24T10:05:48.789Z,100098.61
2023-04-24T10:08:15.632Z,100095.34
2023-04-24T10:10:46.321Z,100092.45
2023-04-24T10:13:14.033Z,100090.58
2023-04-24T10:15:41.817Z,100088.25
2023-04-24T10:18:09.633Z,100086.91
2023-04-24T10:20:37.146Z,100089.95
2023-04-24T10:23:04.170Z,100090.86
2023-04-24T10:25:31.866Z,100094.44
2023-04-24T10:28:00.633Z,100092.70
2023-04-24T10:30:28.190Z,100088.53
2023-04-24T10:32:55.476Z,100084.58
2023-04-24T10:35:25.145Z,100074.60
2023-04-24T10:37:53.230Z,100072.45
2023-04-24T10:40:20.410Z,100066.77
2023-04-24T10:42:50.918Z,100066.67
2023-04-24T10:45:22.852Z,100058.44
2023-04-24T10:47:59.587Z,100061.48
2023-04-24T10:50:27.763Z,100056.65
2023-04-24T10:52:56.759Z,100057.64
2023-04-24T10:55:43.013Z,100054.30
2023-04-24T10:58:09.832Z,100049.33
2023-04-24T11:00:40.129Z,100044.84
2023-04-24T11:03:07.818Z,100041.39
2023-04-24T11:05:53.087Z,100040.70
2023-04-24T11:08:30.175Z,100033.45
2023-04-24T11:10:58.751Z,100035.61
2023-04-24T11:13:26.768Z,100031.52
2023-04-24T11:16:12.878Z,100031.77
2023-04-24T11:18:41.228Z,100028.45
2023-04-24T11:21:13.188Z,100017.51
2023-04-24T11:23:40.712Z,100018.80
2023-04-24T11:26:14.082Z,100013.80
2023-04-24T11:28:50.200Z,100016.13
2023-04-24T11:31:55.745Z,100012.27
2023-04-24T11:34:22.886Z,100009.13
2023-04-24T11:36:49.805Z,100007.41
2023-04-24T11:39:16.580Z,100013.26
2023-04-24T11:41:43.491Z,100012.81
2023-04-24T11:44:10.398Z,100011.03
2023-04-24T11:46:39.035Z,100000.73
2023-04-24T11:49:06.789Z,100000.36
2023-04-24T11:51:43.939Z,99997.32
2023-04-24T11:54:15.216Z,99995.92
2023-04-24T11:56:46.176Z,99996.58
2023-04-24T11:59:13.307Z,99996.73
2023-04-24T12:01:44.038Z,99994.02
2023-04-24T12:04:11.076Z,99993.31
2023-04-24T12:06:38.029Z,99986.48
2023-04-24T12:09:17.391Z,99982.94
2023-04-24T12:11:56.765Z,99981.75
2023-04-24T12:14:23.784Z,99976.73
2023-04-24T12:16:53.715Z,99971.03
2023-04-24T12:19:23.622Z,99974.77
2023-04-24T12:22:03.629Z,99968.54
2023-04-24T12:24:31.297Z,99964.25
2023-04-24T12:26:59.171Z,99965.77
2023-04-24T12:29:26.109Z,99963.77
2023-04-24T12:31:53.055Z,99965.87
2023-04-24T12:34:21.350Z,99967.89
2023-04-24T12:36:48.579Z,99963.23
2023-04-24T12:39:16.442Z,99957.40
2023-04-24T12:41:57.965Z,99959.73
2023-04-24T12:44:35.584Z,99957.08
2023-04-24T12:47:02.707Z,99952.70
2023-04-24T12:49:31.348Z,99949.19
2023-04-24T12:51:58.451Z,99939.23
2023-04-24T12:54:25.381Z,99935.13
2023-04-24T12:56:52.296Z,99933.38
2023-04-24T12:59:19.041Z,99933.82
2023-04-24T13:01:46.022Z,99931.92
2023-04-24T13:04:12.954Z,99930.90
2023-04-24T13:06:39.961Z,99926.56
2023-04-24T13:09:06.789Z,99926.39
2023-04-24T13:11:33.554Z,99931.15
2023-04-24T13:14:00.603Z,99929.70
2023-04-24T13:16:27.391Z,99930.18
2023-04-24T13:18:54.317Z,99928.89
2023-04-24T13:21:21.250Z,99929.02
2023-04-24T13:23:48.034Z,99927.23
2023-04-24T13:26:14.812Z,99922.30
2023-04-24T13:28:41.581Z,99924.10
2023-04-24T13:31:08.497Z,99917.59
2023-04-24T13:33:35.332Z,99911.85
2023-04-24T13:36:02.189Z,99910.83
2023-04-24T13:38:29.031Z,99911.19
2023-04-24T13:40:56.074Z,99909.13
2023-04-24T13:43:22.824Z,99907.98
2023-04-24T13:45:49.753Z,99909.07
2023-04-24T13:48:16.583Z,99909.77
2023-04-24T13:50:44.175Z,99903.98
2023-04-24T13:53:11.217Z,99908.08
2023-04-24T13:55:38.401Z,99907.96
2023-04-24T13:58:05.305Z,99900.38
2023-04-24T14:00:32.126Z,99905.20
2023-04-24T14:02:59.144Z,99899.88
2023-04-24T14:05:26.435Z,99904.50
2023-04-24T14:07:53.316Z,99900.75
2023-04-24T14:10:20.456Z,99896.04
2023-04-24T14:12:47.394Z,99901.13
2023-04-24T14:15:14.577Z,99893.65
2023-04-24T14:17:41.418Z,99897.12
2023-04-24T14:20:08.572Z,99892.02
2023-04-24T14:22:35.578Z,99899.83
2023-04-24T14:25:02.617Z,99899.46
2023-04-24T14:27:29.389Z,99901.96
2023-04-24T14:29:56.718Z,99903.87
2023-04-24T14:32:23.698Z,99908.60
2023-04-24T14:34:50.651Z,99904.87
2023-04-24T14:37:17.673Z,99903.12
2023-04-24T14:39:46.107Z,99904.42
2023-04-24T14:42:18.417Z,99910.71
2023-04-24T14:44:45.675Z,99906.98
2023-04-24T14:47:12.664Z,99905.02
2023-04-24T14:49:39.851Z,99904.44
2023-04-24T14:52:06.803Z,99906.48
2023-04-24T14:54:33.667Z,99904.15
2023-04-24T14:57:02.439Z,99899.88
2023-04-24T14:59:29.986Z,99895.38
2023-04-24T15:02:12.591Z,99895.27
2023-04-24T15:04:48.240Z,99892.45
2023-04-24T15:07:16.422Z,99891.90
2023-04-24T15:09:44.034Z,99894.61
2023-04-24T15:12:13.418Z,99894.11
2023-04-24T15:14:40.392Z,99898.72
2023-04-24T15:17:07.232Z,99901.39
2023-04-24T15:19:34.115Z,99899.13
2023-04-24T15:22:01.085Z,99899.23
2023-04-24T15:24:28.138Z,99903.73
2023-04-24T15:26:55.099Z,99907.86
2023-04-24T15:29:21.889Z,99914.09
2023-04-24T15:31:48.733Z,99917.29
2023-04-24T15:34:15.697Z,99915.73
2023-04-24T15:36:42.489Z,99918.83
2023-04-24T15:39:11.922Z,99921.52
2023-04-24T15:41:39.078Z,99918.54
2023-04-24T15:44:06.531Z,99919.34
2023-04-24T15:46:34.447Z,99916.55
2023-04-24T15:49:01.346Z,99915.79
2023-04-24T15:51:28.183Z,99918.10
2023-04-24T15:53:55.130Z,99913.96
2023-04-24T15:56:22.613Z,99919.70
2023-04-24T15:58:49.705Z,99919.45
2023-04-24T16:01:16.833Z,99914.83
2023-04-24T16:03:43.941Z,99913.16
2023-04-24T16:06:11.117Z,99909.67
2023-04-24T16:08:38.026Z,99902.25
2023-04-24T16:11:04.896Z,99900.23
2023-04-24T16:13:32.228Z,99898.05
2023-04-24T16:15:59.091Z,99895.48
2023-04-24T16:18:26.216Z,99893.11
2023-04-24T16:20:52.924Z,99882.71
2023-04-24T16:23:34.158Z,99875.77
2023-04-24T16:26:10.686Z,99877.13
2023-04-24T16:28:39.233Z,99876.73
2023-04-24T16:31:08.209Z,99870.73
2023-04-24T16:33:34.999Z,99869.77
2023-04-24T16:36:01.865Z,99869.52
2023-04-24T16:38:28.681Z,99869.36
2023-04-24T16:40:55.756Z,99868.44
2023-04-24T16:43:22.603Z,99871.36
2023-04-24T16:45:49.448Z,99869.16
2023-04-24T16:48:16.285Z,99871.86
2023-04-24T16:50:43.014Z,99871.05
2023-04-24T16:53:09.795Z,99869.75
2023-04-24T16:55:36.599Z,99868.08
2023-04-24T16:58:03.447Z,99865.87
2023-04-24T17:00:30.468Z,99866.95
2023-04-24T17:02:59.327Z,99866.89
2023-04-24T17:05:26.916Z,99868.66
2023-04-24T17:07:53.669Z,99867.89
2023-04-24T17:10:20.477Z,99865.25
2023-04-24T17:12:47.364Z,99868.52
2023-04-24T17:15:14.681Z,99866.80
2023-04-24T17:17:44.300Z,99868.69
2023-04-24T17:20:21.997Z,99870.30
2023-04-24T17:22:49.992Z,99878.09
2023-04-24T17:25:16.868Z,99877.23
2023-04-24T17:27:44.355Z,99878.08
2023-04-24T17:30:11.596Z,99883.98
2023-04-24T17:32:38.613Z,99890.54
2023-04-24T17:35:05.954Z,99889.73
2023-04-24T17:37:33.433Z,99888.59
2023-04-24T17:40:00.352Z,99886.66
2023-04-24T17:42:27.121Z,99884.33
2023-04-24T17:44:57.059Z,99888.83
2023-04-24T17:47:26.275Z,99889.74
2023-04-24T17:49:53.350Z,99891.14
2023-04-24T17:52:20.302Z,99891.40
2023-04-24T17:54:47.053Z,99889.89
2023-04-24T17:57:13.980Z,99889.77
2023-04-24T17:59:41.384Z,99890.64
2023-04-24T18:02:08.268Z,99886.70
2023-04-24T18:04:35.258Z,99884.83
2023-04-24T18:07:02.176Z,99883.36
2023-04-24T18:09:29.140Z,99880.02
2023-04-24T18:11:57.197Z,99884.76
2023-04-24T18:14:24.183Z,99882.92
2023-04-24T18:16:50.951Z,99880.11
2023-04-24T18:19:17.746Z,99884.06
2023-04-24T18:21:44.520Z,99880.23
2023-04-24T18:24:11.385Z,99881.21
2023-04-24T18:26:38.241Z,99882.23
2023-04-24T18:29:04.994Z,99883.05
2023-04-24T18:31:32.760Z,99882.24
2023-04-24T18:33:59.744Z,99881.42
2023-04-24T18:36:26.645Z,99881.36
2023-04-24T18:38:53.482Z,99885.17
2023-04-24T18:41:20.628Z,99884.36
2023-04-24T18:43:48.031Z,99885.20
2023-04-24T18:46:15.191Z,99888.90
2023-04-24T18:48:41.978Z,99885.56
2023-04-24T18:51:10.046Z,99889.35
2023-04-24T18:53:36.804Z,99887.80
2023-04-24T18:56:03.841Z,99889.71
2023-04-24T18:58:30.784Z,99887.33
2023-04-24T19:00:57.914Z,99890.86
2023-04-24T19:03:25.052Z,99889.86
2023-04-24T19:05:51.926Z,99890.77
2023-04-24T19:08:18.669Z,99890.64
2023-04-24T19:10:45.503Z,99889.24
2023-04-24T19:13:12.345Z,99890.70
2023-04-24T19:15:40.414Z,99892.66
2023-04-24T19:18:07.515Z,99898.25
2023-04-24T19:20:34.422Z,99900.98
2023-04-24T19:23:01.289Z,99907.60
2023-04-24T19:25:28.099Z,99915.64
2023-04-24T19:27:55.054Z,99911.83
2023-04-24T19:30:21.981Z,99898.95
2023-04-24T19:32:48.983Z,99890.75
2023-04-24T19:35:16.026Z,99890.17
2023-04-24T19:37:42.828Z,99892.59
2023-04-24T19:40:10.897Z,99893.77
2023-04-24T19:42:43.896Z,99892.88
2023-04-24T19:45:12.333Z,99895.32
2023-04-24T19:47:39.347Z,99891.19
2023-04-24T19:50:10.070Z,99894.67
2023-04-24T19:52:36.985Z,99895.64
2023-04-24T19:55:04.209Z,99889.77
2023-04-24T19:57:31.185Z,99886.91
2023-04-24T19:59:58.130Z,99882.06
2023-04-24T20:02:25.314Z,99883.20
2023-04-24T20:04:52.508Z,99878.05
2023-04-24T20:07:19.608Z,99872.14
2023-04-24T20:09:46.441Z,99868.38
2023-04-24T20:12:13.400Z,99868.35
2023-04-24T20:14:40.535Z,99864.15
2023-04-24T20:17:07.970Z,99861.80
2023-04-24T20:19:34.903Z,99860.35
2023-04-24T20:22:01.960Z,99859.27
2023-04-24T20:24:28.902Z,99860.56
2023-04-24T20:26:57.178Z,99860.83
2023-04-24T20:29:24.124Z,99862.52
2023-04-24T20:31:50.911Z,99862.77
2023-04-24T20:34:17.820Z,99862.21
2023-04-24T20:36:49.460Z,99860.64
2023-04-24T20:39:17.144Z,99857.56
2023-04-24T20:41:46.457Z,99859.02
2023-04-24T20:44:14.316Z,99856.70
2023-04-24T20:46:41.182Z,99858.66
2023-04-24T20:49:08.089Z,99861.64
2023-04-24T20:51:35.056Z,99858.21
2023-04-24T20:54:01.970Z,99858.46
2023-04-24T20:56:28.812Z,99861.39
2023-04-24T20:58:57.181Z,99855.88
2023-04-24T21:01:24.678Z,99855.81
2023-04-24T21:03:52.805Z,99856.04
2023-04-24T21:06:21.884Z,99849.27
2023-04-24T21:08:48.764Z,99846.52
2023-04-24T21:11:15.608Z,99846.34
2023-04-24T21:13:42.339Z,99847.73
2023-04-24T21:16:09.318Z,99847.39
2023-04-24T21:18:41.227Z,99850.74
2023-04-24T21:21:09.061Z,99845.65
2023-04-24T21:23:36.297Z,99843.25
2023-04-24T21:26:06.209Z,99844.98
2023-04-24T21:28:33.079Z,99842.89
2023-04-24T21:31:00.269Z,99848.58
2023-04-24T21:33:27.023Z,99848.40
2023-04-24T21:35:53.960Z,99845.64
2023-04-24T21:38:23.418Z,99843.77
2023-04-24T21:40:50.893Z,99841.40
2023-04-24T21:43:18.744Z,99844.84
2023-04-24T21:45:45.974Z,99841.80
2023-04-24T21:48:12.815Z,99843.96
2023-04-24T21:50:40.042Z,99846.83
2023-04-24T21:53:07.301Z,99846.67
2023-04-24T21:55:34.217Z,99845.73
2023-04-24T21:58:00.960Z,99846.42
2023-04-24T22:00:27.760Z,99840.09
2023-04-24T22:02:54.712Z,99839.43
2023-04-24T22:05:21.808Z,99837.80
2023-04-24T22:07:50.809Z,99830.88
2023-04-24T22:10:17.870Z,99835.52
2023-04-24T22:12:44.804Z,99831.54
2023-04-24T22:15:11.775Z,99834.02
2023-04-24T22:17:39.794Z,99834.63
2023-04-24T22:20:07.592Z,99831.81
2023-04-24T22:22:34.893Z,99830.55
2023-04-24T22:25:01.953Z,99827.65
2023-04-24T22:27:28.720Z,99826.11
2023-04-24T22:29:56.623Z,99820.89
2023-04-24T22:32:23.785Z,99820.68
2023-04-24T22:34:50.976Z,99822.14
2023-04-24T22:37:17.686Z,99813.35
2023-04-24T22:39:44.557Z,99814.52
2023-04-24T22:42:11.809Z,99812.92
2023-04-24T22:44:38.628Z,99812.39
2023-04-24T22:47:08.582Z,99805.71
2023-04-24T22:49:35.722Z,99803.34
2023-04-24T22:52:05.306Z,99800.67
2023-04-24T22:54:33.597Z,99795.02
2023-04-24T22:57:01.061Z,99794.27
2023-04-24T22:59:27.995Z,99796.30
2023-04-24T23:01:54.896Z,99793.33
2023-04-24T23:04:34.771Z,99793.81
2023-04-24T23:07:01.838Z,99791.65
2023-04-24T23:09:28.676Z,99789.65
2023-04-24T23:11:55.511Z,99790.02
2023-04-24T23:14:24.653Z,99789.84
2023-04-24T23:16:51.627Z,99784.20
2023-04-24T23:19:18.506Z,99784.52
2023-04-24T23:21:45.280Z,99781.56
2023-04-24T23:24:12.094Z,99780.98
2023-04-24T23:26:39.045Z,99777.52
2023-04-24T23:29:05.984Z,99773.42
2023-04-24T23:31:32.770Z,99773.10
2023-04-24T23:34:00.390Z,99769.13
2023-04-24T23:36:27.438Z,99764.90
2023-04-24T23:38:54.549Z,99764.25
2023-04-24T23:41:21.529Z,99763.64
2023-04-24T23:43:48.567Z,99763.23
2023-04-24T23:46:15.744Z,99766.00
2023-04-24T23:48:42.647Z,99764.46
2023-04-24T23:51:09.471Z,99762.97
2023-04-24T23:53:36.259Z,99762.60
2023-04-24T23:56:03.141Z,99764.30
2023-04-24T23:58:30.038Z,99769.93
